Time;durP1;ratioP1;P1;durP2;ratioP2;P2;SDS_P1;SDS_P2;PMS_P1;PMS_P2;Temp;Humidity;BMP_temperature;BMP_pressure;BME280_temperature;BME280_humidity;BME280_pressure;Samples;Min_cycle;Max_cycle;Signal;HPM_P1;HPM_P2
2022/10/12 00:01:09;;;;;;;11.20;6.70;;;15.10;99.90;;;;;;5034407;28;20211;-82
2022/10/12 00:03:37;;;;;;;8.00;7.20;;;15.10;99.90;;;;;;5034787;28;20210;-82
2022/10/12 00:06:07;;;;;;;11.15;6.50;;;15.10;99.90;;;;;;5034263;28;20217;-82
2022/10/12 00:08:37;;;;;;;8.95;7.15;;;15.10;99.90;;;;;;5033795;28;20234;-83
2022/10/12 00:11:08;;;;;;;7.00;6.40;;;15.00;99.90;;;;;;5034081;28;20210;-82
2022/10/12 00:13:37;;;;;;;7.47;6.22;;;15.00;99.90;;;;;;5034482;28;20213;-82
2022/10/12 00:16:07;;;;;;;6.63;6.00;;;15.00;99.90;;;;;;5034051;28;20214;-82
2022/10/12 00:18:36;;;;;;;7.10;6.10;;;15.00;99.90;;;;;;5033750;28;20226;-82
2022/10/12 00:21:06;;;;;;;7.18;6.57;;;15.00;99.90;;;;;;5033811;28;20217;-82
2022/10/12 00:23:35;;;;;;;6.88;5.70;;;15.00;99.90;;;;;;5033655;28;20214;-82
2022/10/12 00:26:08;;;;;;;8.52;5.78;;;14.90;99.90;;;;;;5033936;28;20220;-82
2022/10/12 00:28:37;;;;;;;5.70;5.20;;;14.90;99.90;;;;;;5034180;28;20230;-82
2022/10/12 00:31:08;;;;;;;6.70;6.00;;;14.90;99.90;;;;;;5034275;28;20252;-82
2022/10/12 00:33:37;;;;;;;6.53;5.93;;;14.90;99.90;;;;;;5033653;28;20210;-82
2022/10/12 00:36:18;;;;;;;7.45;5.80;;;14.80;99.90;;;;;;5033552;28;20207;-82
2022/10/12 00:38:47;;;;;;;7.03;6.00;;;14.80;99.90;;;;;;5033420;28;20209;-82
2022/10/12 00:41:18;;;;;;;5.80;5.22;;;14.80;99.90;;;;;;5033747;28;20213;-82
2022/10/12 00:43:48;;;;;;;6.03;5.53;;;14.70;99.90;;;;;;5033750;28;20202;-82
2022/10/12 00:46:30;;;;;;;7.90;5.65;;;14.70;99.90;;;;;;5033249;28;20220;-83
2022/10/12 00:49:05;;;;;;;5.03;4.65;;;14.70;99.90;;;;;;5033276;28;20212;-82
2022/10/12 00:51:34;;;;;;;5.43;4.93;;;14.60;99.90;;;;;;5033570;28;20199;-82
2022/10/12 00:54:05;;;;;;;6.15;5.60;;;14.60;99.90;;;;;;5033369;28;20210;-83
2022/10/12 00:56:38;;;;;;;10.07;6.32;;;14.60;99.90;;;;;;5033213;28;20207;-82
2022/10/12 00:59:10;;;;;;;16.02;6.22;;;14.50;99.90;;;;;;5032962;28;20210;-82
2022/10/12 01:01:39;;;;;;;7.15;5.80;;;14.50;99.90;;;;;;5033442;28;20210;-82
2022/10/12 01:04:08;;;;;;;8.15;6.05;;;14.40;99.90;;;;;;5033053;28;20207;-82
2022/10/12 01:06:36;;;;;;;6.57;5.53;;;14.40;99.90;;;;;;5033030;28;20206;-82
2022/10/12 01:09:04;;;;;;;7.18;6.43;;;14.40;99.90;;;;;;5032942;28;20217;-82
2022/10/12 01:11:34;;;;;;;5.72;5.18;;;14.30;99.90;;;;;;5033124;28;20218;-82
2022/10/12 01:14:03;;;;;;;6.20;5.60;;;14.40;99.90;;;;;;5033442;28;20206;-82
2022/10/12 01:16:41;;;;;;;6.75;5.82;;;14.30;99.90;;;;;;5033128;28;20211;-82
2022/10/12 01:19:25;;;;;;;7.43;6.45;;;14.30;99.90;;;;;;5033175;28;20233;-82
2022/10/12 01:22:00;;;;;;;8.15;6.15;;;14.30;99.90;;;;;;5033277;28;20210;-82
2022/10/12 01:24:43;;;;;;;9.20;6.22;;;14.30;99.90;;;;;;5032235;28;20210;-82
2022/10/12 01:27:34;;;;;;;7.38;6.13;;;14.30;99.90;;;;;;5032885;28;20230;-82
2022/10/12 01:30:11;;;;;;;7.65;6.40;;;14.30;99.90;;;;;;5032537;28;20425;-82
2022/10/12 01:32:59;;;;;;;9.45;6.05;;;14.20;99.90;;;;;;5032759;28;20464;-83
2022/10/12 01:35:34;;;;;;;7.85;7.05;;;14.20;99.90;;;;;;5024378;28;20206;-82
2022/10/12 01:38:09;;;;;;;6.72;6.13;;;14.20;99.90;;;;;;5032710;28;20222;-82
2022/10/12 01:40:42;;;;;;;7.50;6.10;;;14.10;99.90;;;;;;5032405;28;20249;-82
2022/10/12 01:43:11;;;;;;;7.72;5.95;;;14.10;99.90;;;;;;5032805;28;20199;-82
2022/10/12 01:45:40;;;;;;;8.50;6.88;;;14.10;99.90;;;;;;5032847;28;20206;-80
2022/10/12 01:48:09;;;;;;;7.07;6.40;;;14.10;99.90;;;;;;5032623;28;20233;-81
2022/10/12 01:50:48;;;;;;;17.48;6.45;;;14.00;99.90;;;;;;5032529;28;20214;-81
2022/10/12 01:53:25;;;;;;;6.88;6.18;;;14.00;99.90;;;;;;5032785;28;20217;-81
2022/10/12 01:55:57;;;;;;;7.63;6.57;;;14.10;99.90;;;;;;5032543;28;20214;-81
2022/10/12 01:58:36;;;;;;;6.65;6.07;;;14.00;99.90;;;;;;5032240;28;20226;-81
2022/10/12 02:01:13;;;;;;;8.48;6.43;;;14.00;99.90;;;;;;5032671;28;20269;-81
2022/10/12 02:03:46;;;;;;;6.00;5.40;;;14.00;99.90;;;;;;5033028;28;20210;-81
2022/10/12 02:06:18;;;;;;;5.60;5.13;;;14.10;99.90;;;;;;5032531;28;20202;-81
2022/10/12 02:08:53;;;;;;;9.00;6.22;;;14.10;99.90;;;;;;5032119;28;20230;-81
2022/10/12 02:11:24;;;;;;;6.85;6.15;;;14.10;99.90;;;;;;5032466;28;20217;-80
2022/10/12 02:13:58;;;;;;;5.63;5.13;;;14.00;99.90;;;;;;5032559;28;20265;-80
2022/10/12 02:16:32;;;;;;;6.32;5.68;;;14.10;99.90;;;;;;5032307;28;20215;-80
2022/10/12 02:19:03;;;;;;;6.85;6.18;;;14.10;99.90;;;;;;5032604;28;20209;-81
2022/10/12 02:21:33;;;;;;;6.63;5.50;;;14.10;99.90;;;;;;5032361;28;20222;-81
2022/10/12 02:24:05;;;;;;;7.47;6.10;;;14.00;99.90;;;;;;5032152;28;20214;-81
2022/10/12 02:26:37;;;;;;;6.80;5.53;;;14.00;99.90;;;;;;5032327;28;20210;-81
2022/10/12 02:29:10;;;;;;;5.85;5.35;;;14.00;99.90;;;;;;5032188;28;20242;-81
2022/10/12 02:31:49;;;;;;;6.57;5.97;;;14.00;99.90;;;;;;5032593;28;20217;-81
2022/10/12 02:34:21;;;;;;;6.28;5.65;;;14.00;99.90;;;;;;5032099;28;20221;-82
2022/10/12 02:36:53;;;;;;;7.75;6.18;;;14.00;99.90;;;;;;5033129;28;20226;-83
2022/10/12 02:39:26;;;;;;;6.93;5.70;;;14.00;99.90;;;;;;5035880;28;20289;-82
2022/10/12 02:41:59;;;;;;;7.10;6.40;;;14.00;99.90;;;;;;5035870;28;20209;-82
2022/10/12 02:44:32;;;;;;;7.57;5.97;;;13.90;99.90;;;;;;5035750;28;20202;-81
2022/10/12 02:47:04;;;;;;;6.28;5.78;;;13.90;99.90;;;;;;5035403;28;20218;-82
2022/10/12 02:49:34;;;;;;;8.82;6.80;;;13.90;99.90;;;;;;5035239;28;20226;-82
2022/10/12 02:52:03;;;;;;;6.97;6.18;;;13.80;99.90;;;;;;5035640;28;20211;-82
2022/10/12 02:54:31;;;;;;;6.75;5.53;;;13.80;99.90;;;;;;5035698;28;20217;-82
2022/10/12 02:56:59;;;;;;;6.55;5.93;;;13.70;99.90;;;;;;5035472;28;20230;-82
2022/10/12 02:59:28;;;;;;;6.25;5.53;;;13.60;99.90;;;;;;5035249;28;20203;-82
2022/10/12 03:01:56;;;;;;;7.15;6.45;;;13.60;99.90;;;;;;5035565;28;20222;-82
2022/10/12 03:04:27;;;;;;;5.28;4.85;;;13.50;99.90;;;;;;5035557;28;20210;-81
2022/10/12 03:06:55;;;;;;;8.38;5.90;;;13.50;99.90;;;;;;5035356;28;20226;-82
2022/10/12 03:09:24;;;;;;;8.48;5.78;;;13.40;99.90;;;;;;5035020;28;20233;-82
2022/10/12 03:11:52;;;;;;;5.82;4.68;;;13.40;99.90;;;;;;5035081;28;20207;-82
2022/10/12 03:14:21;;;;;;;5.72;5.15;;;13.30;99.90;;;;;;5035174;28;20218;-82
2022/10/12 03:16:49;;;;;;;5.93;4.70;;;13.30;99.90;;;;;;5035120;28;20234;-81
2022/10/12 03:19:18;;;;;;;7.18;5.47;;;13.30;99.90;;;;;;5035206;28;20213;-82
2022/10/12 03:21:48;;;;;;;4.82;4.35;;;13.20;99.90;;;;;;5035266;28;20217;-82
2022/10/12 03:24:19;;;;;;;5.22;4.72;;;13.20;99.90;;;;;;5034748;28;20221;-81
2022/10/12 03:26:48;;;;;;;4.97;4.57;;;13.20;99.90;;;;;;5035032;28;20230;-80
2022/10/12 03:29:16;;;;;;;6.82;4.93;;;13.10;99.90;;;;;;5034646;28;20222;-80
2022/10/12 03:31:44;;;;;;;6.45;5.43;;;13.10;99.90;;;;;;5035125;28;20214;-80
2022/10/12 03:34:13;;;;;;;8.00;5.85;;;13.00;99.90;;;;;;5034597;28;20234;-82
2022/10/12 03:36:41;;;;;;;5.45;4.85;;;13.00;99.90;;;;;;5034909;28;20242;-81
2022/10/12 03:39:11;;;;;;;7.35;5.05;;;13.00;99.90;;;;;;5034677;28;20202;-81
2022/10/12 03:41:39;;;;;;;4.80;4.35;;;13.00;99.90;;;;;;5034580;28;20257;-81
2022/10/12 03:44:11;;;;;;;5.43;4.90;;;13.00;99.90;;;;;;5034713;28;20217;-82
2022/10/12 03:46:39;;;;;;;7.22;5.03;;;12.90;99.90;;;;;;5034705;28;20203;-82
2022/10/12 03:49:07;;;;;;;10.20;5.60;;;13.00;99.90;;;;;;5033917;28;20246;-82
2022/10/12 03:51:36;;;;;;;5.88;5.05;;;12.90;99.90;;;;;;5034557;28;20218;-82
2022/10/12 03:54:05;;;;;;;4.53;4.10;;;12.90;99.90;;;;;;5034203;28;20216;-80
2022/10/12 03:56:34;;;;;;;4.85;4.45;;;12.80;99.90;;;;;;5034573;28;20202;-81
2022/10/12 03:59:03;;;;;;;5.03;4.60;;;12.80;99.90;;;;;;5034269;28;20206;-81
2022/10/12 04:01:31;;;;;;;5.20;4.55;;;12.80;99.90;;;;;;5034383;28;20211;-81
2022/10/12 04:03:59;;;;;;;5.03;4.63;;;12.80;99.90;;;;;;5034507;28;20202;-81
2022/10/12 04:06:27;;;;;;;6.35;5.28;;;12.80;99.90;;;;;;5033916;28;20209;-81
2022/10/12 04:08:55;;;;;;;6.13;4.43;;;12.70;99.90;;;;;;5033831;28;20219;-81
2022/10/12 04:11:24;;;;;;;5.50;5.07;;;12.70;99.90;;;;;;5034340;28;20214;-82
2022/10/12 04:13:54;;;;;;;6.38;5.75;;;12.70;99.90;;;;;;5033875;28;20198;-83
2022/10/12 04:16:22;;;;;;;12.90;5.30;;;12.70;99.90;;;;;;5033687;28;20209;-83
2022/10/12 04:18:55;;;;;;;6.68;5.68;;;12.70;99.90;;;;;;5033925;28;20206;-82
2022/10/12 04:21:25;;;;;;;5.38;4.60;;;12.60;99.90;;;;;;5033960;28;20206;-83
2022/10/12 04:23:53;;;;;;;6.00;5.35;;;12.60;99.90;;;;;;5033309;28;20212;-83
2022/10/12 04:26:21;;;;;;;5.38;4.95;;;12.60;99.90;;;;;;5034194;28;20206;-83
2022/10/12 04:28:50;;;;;;;8.27;5.10;;;12.60;99.90;;;;;;5033203;28;20226;-82
2022/10/12 04:31:20;;;;;;;8.73;6.00;;;12.60;99.90;;;;;;5033630;28;20206;-82
2022/10/12 04:33:48;;;;;;;6.93;5.57;;;12.60;99.90;;;;;;5033840;28;20210;-82
2022/10/12 04:36:17;;;;;;;5.60;4.85;;;12.60;99.90;;;;;;5033662;28;20213;-82
2022/10/12 04:38:45;;;;;;;5.72;4.97;;;12.60;99.90;;;;;;5033870;28;20234;-82
2022/10/12 04:41:13;;;;;;;6.43;5.18;;;12.70;99.90;;;;;;5033478;28;20212;-82
2022/10/12 04:43:41;;;;;;;8.55;5.28;;;12.70;99.90;;;;;;5033042;28;20218;-82
2022/10/12 04:46:10;;;;;;;5.15;4.63;;;12.70;99.90;;;;;;5033867;28;20214;-82
2022/10/12 04:48:40;;;;;;;8.50;5.15;;;12.70;99.90;;;;;;5033053;28;20227;-82
2022/10/12 04:51:08;;;;;;;5.30;4.80;;;12.70;99.90;;;;;;5033696;28;20203;-82
2022/10/12 04:53:36;;;;;;;8.30;5.15;;;12.80;99.90;;;;;;5033435;28;20202;-82
2022/10/12 04:56:05;;;;;;;16.00;5.10;;;12.80;99.90;;;;;;5032986;28;20216;-82
2022/10/12 04:58:34;;;;;;;19.73;5.68;;;12.80;99.90;;;;;;5032930;28;20223;-81
2022/10/12 05:01:02;;;;;;;4.43;4.07;;;12.80;99.90;;;;;;5032739;28;20239;-83
2022/10/12 05:03:30;;;;;;;6.07;4.38;;;12.80;99.90;;;;;;5033587;28;20202;-83
2022/10/12 05:06:00;;;;;;;5.30;4.80;;;12.80;99.90;;;;;;5033146;28;20214;-83
2022/10/12 05:08:28;;;;;;;5.40;4.35;;;12.80;99.90;;;;;;5032892;28;20223;-83
2022/10/12 05:10:58;;;;;;;6.20;4.85;;;12.80;99.90;;;;;;5032719;28;20241;-83
2022/10/12 05:13:27;;;;;;;5.63;5.13;;;12.80;99.90;;;;;;5033129;28;20217;-83
2022/10/12 05:15:55;;;;;;;5.75;4.22;;;12.80;99.90;;;;;;5033148;28;20218;-83
2022/10/12 05:18:26;;;;;;;6.43;5.05;;;12.80;99.90;;;;;;5033004;28;20276;-82
2022/10/12 05:20:54;;;;;;;12.15;5.53;;;12.80;99.90;;;;;;5033000;28;20207;-82
2022/10/12 05:23:25;;;;;;;4.97;4.40;;;12.80;99.90;;;;;;5033160;28;20232;-82
2022/10/12 05:25:55;;;;;;;5.15;3.88;;;12.70;99.90;;;;;;5032404;28;20221;-82
2022/10/12 05:28:24;;;;;;;5.30;4.13;;;12.70;99.90;;;;;;5032317;28;20238;-82
2022/10/12 05:30:52;;;;;;;6.30;4.85;;;12.60;99.90;;;;;;5032609;28;20222;-81
2022/10/12 05:33:21;;;;;;;5.38;4.10;;;12.60;99.90;;;;;;5032762;28;20206;-80
2022/10/12 05:35:49;;;;;;;5.32;4.47;;;12.60;99.90;;;;;;5032664;28;20202;-80
2022/10/12 05:38:24;;;;;;;5.30;4.28;;;12.50;99.90;;;;;;5032318;28;20234;-80
2022/10/12 05:40:52;;;;;;;4.82;4.28;;;12.60;99.90;;;;;;5032378;28;20233;-81
2022/10/12 05:43:27;;;;;;;4.45;3.80;;;12.60;99.90;;;;;;5033230;28;20293;-82
2022/10/12 05:45:55;;;;;;;4.90;4.40;;;12.50;99.90;;;;;;5032841;28;20199;-81
2022/10/12 05:48:23;;;;;;;5.65;3.85;;;12.50;99.90;;;;;;5032467;28;20230;-81
2022/10/12 05:50:52;;;;;;;4.30;3.90;;;12.60;99.90;;;;;;5032131;28;20221;-81
2022/10/12 05:53:21;;;;;;;4.78;4.32;;;12.60;99.90;;;;;;5032753;28;20218;-81
2022/10/12 05:55:55;;;;;;;4.65;4.25;;;12.60;99.90;;;;;;5032298;28;20210;-81
2022/10/12 05:58:23;;;;;;;6.13;4.32;;;12.60;99.90;;;;;;5032663;28;20233;-82
2022/10/12 06:00:52;;;;;;;4.35;3.95;;;12.70;99.90;;;;;;5032297;28;20194;-81
2022/10/12 06:03:21;;;;;;;8.45;4.53;;;12.70;99.90;;;;;;5032571;28;20203;-81
2022/10/12 06:05:53;;;;;;;4.10;3.60;;;12.80;99.90;;;;;;5032550;28;20210;-80
2022/10/12 06:08:21;;;;;;;4.78;3.63;;;12.70;99.90;;;;;;5032120;28;20222;-80
2022/10/12 06:10:51;;;;;;;3.70;3.40;;;12.70;99.90;;;;;;5033199;28;20230;-80
2022/10/12 06:13:21;;;;;;;9.90;3.97;;;12.70;99.90;;;;;;5036310;28;20210;-81
2022/10/12 06:15:49;;;;;;;4.47;3.83;;;12.80;99.90;;;;;;5036095;28;20205;-81
2022/10/12 06:18:19;;;;;;;6.32;3.30;;;12.70;99.90;;;;;;5036373;28;20236;-81
2022/10/12 06:20:48;;;;;;;8.18;3.65;;;12.80;99.90;;;;;;5036344;28;20284;-81
2022/10/12 06:23:16;;;;;;;4.28;3.63;;;12.70;99.90;;;;;;5036560;28;20206;-81
2022/10/12 06:25:47;;;;;;;11.45;4.07;;;12.80;99.90;;;;;;5035687;28;20203;-80
2022/10/12 06:28:16;;;;;;;5.25;4.18;;;12.80;99.90;;;;;;5036048;28;20233;-83
2022/10/12 06:30:46;;;;;;;4.80;3.95;;;12.80;99.90;;;;;;5035530;28;20233;-80
2022/10/12 06:33:15;;;;;;;4.28;3.78;;;12.80;99.90;;;;;;5036052;28;20195;-81
2022/10/12 06:35:43;;;;;;;6.10;3.75;;;12.90;99.90;;;;;;5035863;28;20225;-81
2022/10/12 06:38:11;;;;;;;3.95;3.40;;;12.90;99.90;;;;;;5035628;28;20230;-80
2022/10/12 06:40:39;;;;;;;4.72;3.42;;;13.00;99.90;;;;;;5035557;28;20208;-81
2022/10/12 06:43:07;;;;;;;4.07;3.55;;;13.10;99.90;;;;;;5035916;28;20210;-81
2022/10/12 06:45:36;;;;;;;5.45;3.30;;;13.20;99.90;;;;;;5035904;28;20211;-81
2022/10/12 06:48:06;;;;;;;3.55;3.25;;;13.20;99.90;;;;;;5035909;28;20241;-81
2022/10/12 06:50:34;;;;;;;5.10;3.47;;;13.20;99.90;;;;;;5035527;28;20222;-81
2022/10/12 06:53:02;;;;;;;3.88;3.47;;;13.30;99.90;;;;;;5035491;28;20211;-81
2022/10/12 06:55:30;;;;;;;5.43;3.60;;;13.30;99.90;;;;;;5035611;28;20210;-81
2022/10/12 06:57:59;;;;;;;5.00;3.50;;;13.30;99.90;;;;;;5035294;28;20226;-81
2022/10/12 07:00:27;;;;;;;3.42;3.10;;;13.40;99.90;;;;;;5035348;28;20217;-82
2022/10/12 07:02:55;;;;;;;5.32;3.50;;;13.50;99.90;;;;;;5035653;28;20206;-81
2022/10/12 07:05:26;;;;;;;4.28;3.55;;;13.50;99.90;;;;;;5035323;28;20206;-81
2022/10/12 07:07:54;;;;;;;4.82;3.22;;;13.50;99.90;;;;;;5035440;28;20240;-81
2022/10/12 07:10:23;;;;;;;11.85;4.07;;;13.60;99.90;;;;;;5034921;28;20226;-81
2022/10/12 07:12:51;;;;;;;4.43;3.53;;;13.60;99.90;;;;;;5035364;28;20206;-81
2022/10/12 07:15:20;;;;;;;4.35;3.58;;;13.70;99.90;;;;;;5035366;28;20214;-81
2022/10/12 07:17:48;;;;;;;9.85;4.20;;;13.80;99.90;;;;;;5035155;28;20231;-81
2022/10/12 07:20:16;;;;;;;4.18;3.70;;;13.80;99.90;;;;;;5034923;28;20210;-81
2022/10/12 07:22:46;;;;;;;4.63;3.88;;;13.90;99.90;;;;;;5034641;28;20209;-81
2022/10/12 07:25:15;;;;;;;3.80;3.40;;;14.00;99.90;;;;;;5034684;28;20210;-83
2022/10/12 07:27:43;;;;;;;4.50;3.38;;;14.10;99.90;;;;;;5035372;28;20239;-82
2022/10/12 07:30:12;;;;;;;4.85;3.35;;;14.20;99.90;;;;;;5034792;28;20210;-82
2022/10/12 07:32:41;;;;;;;4.20;3.80;;;14.30;99.90;;;;;;5035187;28;20206;-82
2022/10/12 07:35:10;;;;;;;6.07;4.28;;;14.30;99.90;;;;;;5034539;28;20214;-81
2022/10/12 07:37:38;;;;;;;6.88;4.43;;;14.40;99.90;;;;;;5034959;28;20233;-81
2022/10/12 07:40:09;;;;;;;3.88;3.55;;;14.50;99.90;;;;;;5034558;28;20207;-81
2022/10/12 07:42:37;;;;;;;4.72;3.63;;;14.60;99.90;;;;;;5034902;28;20214;-82
2022/10/12 07:45:27;;;;;;;4.13;2.97;;;14.70;99.90;;;;;;5034735;28;20242;-81
2022/10/12 07:47:56;;;;;;;10.30;3.13;;;14.80;99.90;;;;;;5035034;28;20238;-82
2022/10/12 07:50:24;;;;;;;4.28;3.70;;;14.90;99.90;;;;;;5034078;28;20219;-82
2022/10/12 07:52:55;;;;;;;6.97;2.97;;;14.90;99.90;;;;;;5034500;28;20206;-82
2022/10/12 07:55:25;;;;;;;4.90;2.97;;;15.10;99.90;;;;;;5034784;28;20237;-82
2022/10/12 07:57:53;;;;;;;3.63;3.03;;;15.20;99.90;;;;;;5034332;28;20238;-82
2022/10/12 08:00:22;;;;;;;3.05;2.75;;;15.20;99.90;;;;;;5034605;28;20199;-84
2022/10/12 08:02:50;;;;;;;4.97;2.95;;;15.20;99.90;;;;;;5034450;28;20202;-83
2022/10/12 08:05:20;;;;;;;5.35;3.33;;;15.30;99.90;;;;;;5034298;28;20221;-83
2022/10/12 08:07:48;;;;;;;3.47;3.00;;;15.40;99.90;;;;;;5034519;28;20230;-83
2022/10/12 08:10:17;;;;;;;3.42;3.13;;;15.40;99.90;;;;;;5034310;28;20206;-83
2022/10/12 08:12:47;;;;;;;5.30;3.38;;;15.50;99.90;;;;;;5033843;28;20237;-82
2022/10/12 08:15:19;;;;;;;3.33;3.10;;;15.60;99.90;;;;;;5034122;28;20206;-83
2022/10/12 08:17:47;;;;;;;5.30;3.78;;;15.60;99.90;;;;;;5034223;28;20226;-83
2022/10/12 08:20:15;;;;;;;3.92;3.50;;;15.60;99.90;;;;;;5034170;28;20209;-82
2022/10/12 08:22:44;;;;;;;3.63;3.33;;;15.60;99.90;;;;;;5034394;28;20198;-83
2022/10/12 08:25:12;;;;;;;3.67;3.13;;;15.60;99.90;;;;;;5033453;28;20217;-82
2022/10/12 08:27:40;;;;;;;7.55;3.45;;;15.60;99.90;;;;;;5033717;28;20238;-82
2022/10/12 08:30:12;;;;;;;3.72;3.42;;;15.60;99.90;;;;;;5033625;28;20209;-82
2022/10/12 08:32:40;;;;;;;4.63;3.05;;;15.60;99.90;;;;;;5033851;28;20226;-82
2022/10/12 08:35:09;;;;;;;4.20;3.53;;;15.50;99.90;;;;;;5033058;28;20234;-82
2022/10/12 08:37:41;;;;;;;5.03;4.38;;;15.50;99.90;;;;;;5033754;28;20246;-82
2022/10/12 08:40:14;;;;;;;4.30;3.80;;;15.50;99.90;;;;;;5033621;28;20218;-82
2022/10/12 08:42:54;;;;;;;4.63;3.63;;;15.60;99.90;;;;;;5033925;28;20203;-82
2022/10/12 08:45:43;;;;;;;3.65;3.30;;;15.60;99.90;;;;;;5033637;28;20206;-82
2022/10/12 08:48:16;;;;;;;4.18;3.72;;;15.70;99.90;;;;;;5033625;28;20316;-84
2022/10/12 08:50:49;;;;;;;5.85;4.45;;;15.70;99.90;;;;;;5033558;28;20205;-82
2022/10/12 08:53:24;;;;;;;4.88;3.38;;;15.60;99.90;;;;;;5033250;28;20208;-82
2022/10/12 08:55:57;;;;;;;8.10;4.13;;;15.70;99.90;;;;;;5033099;28;20213;-82
2022/10/12 08:58:37;;;;;;;4.22;3.38;;;15.60;99.90;;;;;;5033181;28;20286;-82
2022/10/12 09:01:16;;;;;;;4.57;3.47;;;15.70;99.90;;;;;;5033375;28;20206;-82
2022/10/12 09:03:57;;;;;;;6.22;3.65;;;15.80;99.90;;;;;;5033170;28;20289;-82
2022/10/12 09:06:33;;;;;;;4.03;3.63;;;15.80;99.90;;;;;;5033010;28;20213;-82
2022/10/12 09:09:12;;;;;;;6.72;4.22;;;15.90;99.90;;;;;;5032933;28;20206;-82
2022/10/12 09:12:04;;;;;;;6.05;3.50;;;16.10;99.90;;;;;;5032942;28;20222;-84
2022/10/12 09:14:44;;;;;;;4.57;3.63;;;16.30;99.90;;;;;;5033179;28;20216;-82
2022/10/12 09:17:28;;;;;;;4.18;3.78;;;16.50;99.90;;;;;;5032889;28;20230;-82
2022/10/12 09:20:03;;;;;;;22.10;4.10;;;16.80;99.90;;;;;;5032589;28;20301;-83
2022/10/12 09:22:35;;;;;;;3.33;3.03;;;17.00;99.90;;;;;;5033062;28;20221;-82
2022/10/12 09:25:43;;;;;;;7.25;4.45;;;17.10;99.90;;;;;;5032829;28;20227;-83
2022/10/12 09:32:26;;;;;;;4.78;3.35;;;17.60;99.90;;;;;;4999887;28;20220;-83
2022/10/12 09:34:56;;;;;;;3.78;3.40;;;17.90;99.90;;;;;;5052668;28;20205;-83
2022/10/12 09:37:28;;;;;;;4.63;4.00;;;17.90;99.90;;;;;;5052494;28;20214;-83
2022/10/12 09:39:57;;;;;;;4.47;3.70;;;17.90;99.90;;;;;;5052554;28;20328;-82
2022/10/12 09:42:25;;;;;;;3.22;2.92;;;17.90;99.90;;;;;;5052618;28;20273;-82
2022/10/12 09:44:57;;;;;;;4.40;3.67;;;17.90;99.90;;;;;;5052481;28;20231;-82
2022/10/12 09:47:33;;;;;;;3.83;3.17;;;18.00;99.90;;;;;;5052734;28;20234;-82
2022/10/12 09:50:06;;;;;;;3.72;3.38;;;18.00;99.90;;;;;;5052104;28;20220;-82
2022/10/12 09:52:43;;;;;;;7.32;4.20;;;17.90;99.90;;;;;;5052527;28;20240;-83
2022/10/12 09:55:25;;;;;;;5.78;4.32;;;17.80;99.90;;;;;;5052495;28;20202;-82
2022/10/12 09:57:57;;;;;;;3.88;3.58;;;17.80;99.90;;;;;;5052357;28;20233;-82
2022/10/12 10:00:28;;;;;;;5.05;3.00;;;17.90;99.90;;;;;;5052573;28;20209;-83
2022/10/12 10:03:00;;;;;;;3.90;2.92;;;18.00;99.90;;;;;;5052563;28;20248;-83
2022/10/12 10:05:31;;;;;;;3.85;3.50;;;18.20;99.90;;;;;;5052365;28;20201;-83
2022/10/12 10:08:19;;;;;;;3.88;3.28;;;18.50;99.90;;;;;;5052790;28;20233;-83
2022/10/12 10:10:50;;;;;;;5.00;3.92;;;18.90;99.90;;;;;;5052740;28;20202;-82
2022/10/12 10:13:18;;;;;;;7.22;4.20;;;19.10;99.90;;;;;;5052022;28;20259;-82
2022/10/12 10:15:50;;;;;;;4.93;3.47;;;19.20;99.90;;;;;;5052121;28;20218;-82
2022/10/12 10:18:29;;;;;;;4.32;3.53;;;19.30;99.90;;;;;;5051988;28;20260;-82
2022/10/12 10:21:02;;;;;;;5.07;3.63;;;19.30;99.90;;;;;;5052426;28;20216;-82
2022/10/12 10:23:33;;;;;;;4.07;3.30;;;19.20;99.90;;;;;;5052691;28;20209;-81
2022/10/12 10:26:06;;;;;;;3.40;2.90;;;19.30;99.90;;;;;;5052108;28;20226;-82
2022/10/12 10:28:37;;;;;;;4.50;3.80;;;19.30;99.90;;;;;;5052205;28;20241;-81
2022/10/12 10:31:07;;;;;;;5.75;4.05;;;19.30;99.90;;;;;;5052488;28;20209;-82
2022/10/12 10:33:38;;;;;;;4.03;3.28;;;19.30;99.90;;;;;;5051825;28;20222;-82
2022/10/12 10:36:18;;;;;;;6.25;3.80;;;19.40;99.90;;;;;;5052356;28;20202;-82
2022/10/12 10:49:36;;;;;;;5.07;3.67;;;19.80;99.90;;;;;;4950383;29;20229;-82
2022/10/12 10:52:05;;;;;;;7.03;4.22;;;19.60;99.90;;;;;;4951892;29;20213;-82
2022/10/12 10:54:37;;;;;;;6.00;3.97;;;19.60;99.90;;;;;;4952172;29;20219;-82
2022/10/12 10:57:13;;;;;;;7.00;3.78;;;19.60;99.90;;;;;;4998033;28;20257;-82
2022/10/12 10:59:47;;;;;;;3.45;3.10;;;19.40;99.90;;;;;;5015383;28;20226;-82
2022/10/12 11:02:24;;;;;;;3.50;3.20;;;19.60;99.90;;;;;;5016441;28;20219;-82
2022/10/12 11:05:00;;;;;;;5.45;4.07;;;19.70;99.90;;;;;;5015559;28;20211;-82
2022/10/12 11:07:37;;;;;;;3.58;3.28;;;19.90;99.90;;;;;;5015471;28;20222;-82
2022/10/12 11:10:16;;;;;;;4.93;3.30;;;20.10;99.90;;;;;;5015711;28;20209;-82
2022/10/12 11:12:48;;;;;;;3.33;3.10;;;20.10;99.90;;;;;;5015433;28;20223;-82
2022/10/12 11:15:24;;;;;;;3.60;3.28;;;20.10;99.90;;;;;;5015709;28;20203;-82
2022/10/12 11:17:58;;;;;;;6.57;4.53;;;20.30;99.90;;;;;;5015419;28;20230;-82
2022/10/12 11:20:42;;;;;;;4.13;3.53;;;20.50;99.90;;;;;;5015441;28;20214;-82
2022/10/12 11:23:22;;;;;;;4.43;3.38;;;20.60;99.90;;;;;;5015264;28;20222;-81
2022/10/12 11:26:02;;;;;;;6.78;3.35;;;20.70;99.90;;;;;;5015086;28;20215;-82
2022/10/12 11:28:36;;;;;;;3.80;3.05;;;20.60;99.90;;;;;;5014649;28;20234;-82
2022/10/12 11:31:07;;;;;;;4.30;3.33;;;20.60;99.90;;;;;;5015459;28;20211;-82
2022/10/12 11:33:39;;;;;;;3.42;2.90;;;20.60;99.90;;;;;;5014912;28;20234;-82
2022/10/12 11:36:13;;;;;;;3.28;2.97;;;20.80;99.90;;;;;;5015574;28;20202;-82
2022/10/12 11:38:45;;;;;;;3.95;3.35;;;21.10;99.90;;;;;;5014779;28;20230;-82
2022/10/12 11:41:20;;;;;;;6.45;3.63;;;21.30;99.90;;;;;;5015134;28;20219;-83
2022/10/12 11:44:07;;;;;;;3.03;2.72;;;21.50;99.90;;;;;;5014731;28;20214;-81
2022/10/12 11:46:44;;;;;;;7.80;3.70;;;21.60;99.90;;;;;;5014807;28;20225;-81
2022/10/12 11:49:16;;;;;;;3.08;2.78;;;21.60;99.90;;;;;;5014300;28;20269;-81
2022/10/12 11:51:48;;;;;;;4.55;3.28;;;21.60;99.90;;;;;;5015151;28;20210;-81
2022/10/12 11:54:27;;;;;;;4.43;3.53;;;21.60;99.90;;;;;;5014707;28;20227;-81
2022/10/12 11:57:01;;;;;;;3.60;3.30;;;21.80;99.90;;;;;;5014797;28;20234;-83
2022/10/12 11:59:36;;;;;;;3.75;3.35;;;21.90;99.90;;;;;;5014562;28;20214;-82
2022/10/12 12:02:15;;;;;;;6.35;3.72;;;22.10;99.90;;;;;;5014722;28;20226;-82
2022/10/12 12:04:45;;;;;;;4.45;3.38;;;22.30;99.90;;;;;;5014833;28;20213;-82
2022/10/12 12:07:42;;;;;;;4.78;3.75;;;22.40;99.50;;;;;;5014194;28;20231;-82
2022/10/12 12:10:51;;;;;;;4.78;3.42;;;22.40;99.30;;;;;;5014126;28;20206;-82
2022/10/12 12:13:27;;;;;;;4.82;3.33;;;22.50;99.00;;;;;;5014369;28;20226;-82
2022/10/12 12:16:33;;;;;;;6.25;3.40;;;22.70;98.40;;;;;;5014394;28;20217;-81
2022/10/12 12:19:35;;;;;;;4.18;2.95;;;22.90;98.00;;;;;;5013749;28;20202;-82
2022/10/12 12:22:48;;;;;;;6.07;3.55;;;23.10;96.30;;;;;;5014393;28;20210;-82
2022/10/12 12:25:22;;;;;;;2.88;2.67;;;23.40;97.00;;;;;;5014257;28;20203;-82
2022/10/12 12:27:53;;;;;;;3.38;3.05;;;23.70;97.60;;;;;;5013940;28;20235;-82
2022/10/12 12:30:29;;;;;;;5.75;3.17;;;24.10;96.80;;;;;;5013679;28;20212;-82
2022/10/12 12:32:59;;;;;;;3.50;3.17;;;24.50;95.10;;;;;;5013953;28;20230;-82
2022/10/12 12:35:32;;;;;;;3.30;3.00;;;24.50;94.70;;;;;;5014525;28;20277;-82
2022/10/12 12:38:22;;;;;;;4.22;3.38;;;24.40;94.90;;;;;;5014292;28;20230;-81
2022/10/12 12:41:03;;;;;;;2.63;2.42;;;24.10;93.30;;;;;;5013971;28;20222;-81
2022/10/12 12:43:56;;;;;;;4.28;3.15;;;23.70;94.40;;;;;;5013812;28;20246;-81
2022/10/12 12:46:47;;;;;;;3.28;2.97;;;23.30;94.30;;;;;;5013844;28;20211;-81
2022/10/12 12:49:37;;;;;;;3.30;3.00;;;22.80;95.00;;;;;;5013667;28;20211;-81
2022/10/12 12:52:11;;;;;;;4.20;3.10;;;22.20;95.00;;;;;;5013899;28;20211;-81
2022/10/12 12:54:58;;;;;;;4.50;2.60;;;21.80;95.30;;;;;;5013509;28;20237;-81
2022/10/12 12:57:46;;;;;;;15.60;3.10;;;21.40;96.40;;;;;;5013587;28;20246;-81
2022/10/12 13:00:20;;;;;;;3.30;3.05;;;21.20;96.90;;;;;;5013090;28;20214;-81
2022/10/12 13:03:23;;;;;;;3.30;3.00;;;21.00;97.30;;;;;;5013650;28;20206;-81
2022/10/12 13:06:25;;;;;;;3.53;3.17;;;20.90;97.50;;;;;;5003745;28;20261;-81
2022/10/12 13:09:24;;;;;;;3.65;2.85;;;21.00;97.80;;;;;;5013376;28;20214;-81
2022/10/12 13:12:13;;;;;;;8.65;3.40;;;21.20;97.60;;;;;;5013213;28;20214;-81
2022/10/12 13:15:09;;;;;;;4.90;3.00;;;21.20;96.90;;;;;;4996838;28;20235;-81
2022/10/12 13:17:54;;;;;;;11.00;3.58;;;21.10;97.50;;;;;;4988623;28;20227;-80
2022/10/12 13:20:26;;;;;;;3.35;3.10;;;20.90;97.70;;;;;;5012740;28;20215;-81
2022/10/12 13:22:57;;;;;;;3.45;2.78;;;20.70;97.50;;;;;;5013033;28;20217;-81
2022/10/12 13:25:30;;;;;;;3.72;3.17;;;20.50;98.00;;;;;;5012776;28;20210;-81
2022/10/12 13:28:03;;;;;;;3.50;3.15;;;20.40;98.10;;;;;;5012630;28;20227;-81
2022/10/12 13:30:35;;;;;;;3.90;3.50;;;20.40;98.40;;;;;;5012865;28;20214;-81